createdAt,value
2017-09-01T00:00:20.467Z,99.99
2017-09-01T00:01:30.415Z,99.99
2017-09-01T00:02:40.050Z,99.99
2017-09-01T00:03:49.996Z,99.99
2017-09-01T00:05:00.260Z,99.99
2017-09-01T00:06:10.528Z,99.99
2017-09-01T00:07:20.505Z,99.99
2017-09-01T00:08:30.779Z,99.99
2017-09-01T00:09:40.727Z,99.99
2017-09-01T00:10:50.991Z,99.99
2017-09-01T00:12:01.257Z,99.99
2017-09-01T00:13:11.203Z,99.99
2017-09-01T00:14:21.471Z,99.99
2017-09-01T00:15:31.743Z,99.99
2017-09-01T00:16:42.007Z,99.99
2017-09-01T00:17:51.952Z,99.99
2017-09-01T00:19:01.894Z,99.99
2017-09-01T00:20:11.836Z,99.99
2017-09-01T00:21:22.104Z,99.99
2017-09-01T00:22:32.365Z,99.99
2017-09-01T00:23:42.316Z,99.99
2017-09-01T00:24:52.582Z,99.99
2017-09-01T00:26:02.845Z,99.99
2017-09-01T00:27:13.173Z,99.99
2017-09-01T00:28:23.118Z,99.99
2017-09-01T00:29:32.741Z,99.99
2017-09-01T00:30:42.686Z,99.99
2017-09-01T00:31:52.952Z,99.99
2017-09-01T00:33:03.217Z,99.99
2017-09-01T00:34:12.838Z,99.99
2017-09-01T00:35:23.106Z,99.99
2017-09-01T00:36:32.732Z,99.99
2017-09-01T00:37:42.676Z,99.99
2017-09-01T00:38:52.939Z,99.99
2017-09-01T00:40:03.208Z,99.99
2017-09-01T00:41:13.153Z,99.99
2017-09-01T00:42:23.421Z,99.99
2017-09-01T00:43:33.688Z,99.99
2017-09-01T00:44:43.962Z,99.99
2017-09-01T00:45:54.234Z,99.99
2017-09-01T00:47:04.181Z,99.99
2017-09-01T00:48:14.127Z,99.99
2017-09-01T00:49:24.397Z,99.99
2017-09-01T00:50:34.663Z,99.99
2017-09-01T00:51:44.609Z,99.99
2017-09-01T00:52:54.877Z,99.99
2017-09-01T00:54:04.823Z,99.99
2017-09-01T00:55:15.131Z,99.99
2017-09-01T00:56:25.401Z,99.99
2017-09-01T00:57:35.671Z,99.99
2017-09-01T00:58:45.939Z,99.99
2017-09-01T00:59:56.207Z,99.99
2017-09-01T01:01:06.150Z,99.99
2017-09-01T01:02:16.418Z,99.99
2017-09-01T01:03:26.688Z,99.99
2017-09-01T01:04:36.955Z,99.99
2017-09-01T01:05:47.222Z,99.99
2017-09-01T01:06:57.488Z,99.99
2017-09-01T01:08:07.433Z,99.99
2017-09-01T01:09:17.701Z,99.99
2017-09-01T01:10:27.646Z,99.99
2017-09-01T01:11:37.592Z,99.99
2017-09-01T01:12:47.862Z,99.99
2017-09-01T01:13:58.126Z,99.99
2017-09-01T01:15:07.750Z,99.99
2017-09-01T01:16:18.020Z,99.99
2017-09-01T01:17:28.306Z,99.99
2017-09-01T01:18:38.573Z,99.99
2017-09-01T01:19:48.837Z,99.99
2017-09-01T01:20:58.461Z,99.99
2017-09-01T01:22:08.725Z,99.99
2017-09-01T01:23:18.671Z,99.99
2017-09-01T01:24:28.936Z,99.99
2017-09-01T01:25:39.210Z,99.99
2017-09-01T01:26:49.154Z,99.99
2017-09-01T01:27:59.420Z,99.99
2017-09-01T01:29:09.684Z,99.99
2017-09-01T01:30:19.639Z,99.99
2017-09-01T01:31:29.906Z,99.99
2017-09-01T01:32:40.179Z,99.99
2017-09-01T01:33:50.127Z,99.99
2017-09-01T01:35:00.392Z,99.99
2017-09-01T01:36:10.052Z,99.99
2017-09-01T01:37:20.316Z,99.99
2017-09-01T01:38:30.586Z,99.99
2017-09-01T01:39:40.213Z,99.99
2017-09-01T01:40:50.157Z,99.99
2017-09-01T01:42:00.106Z,99.99
2017-09-01T01:43:10.372Z,99.99
2017-09-01T01:44:20.638Z,99.99
2017-09-01T01:45:30.905Z,99.99
2017-09-01T01:46:40.528Z,99.99
2017-09-01T01:47:50.470Z,99.99
2017-09-01T01:49:00.737Z,99.99
2017-09-01T01:50:11.003Z,99.99
2017-09-01T01:51:21.273Z,99.99
2017-09-01T01:52:31.539Z,99.99
2017-09-01T01:53:41.487Z,99.99
2017-09-01T01:54:51.431Z,99.99
2017-09-01T01:56:01.705Z,99.99
2017-09-01T01:57:11.977Z,99.99
2017-09-01T01:58:22.245Z,99.99
2017-09-01T01:59:32.513Z,99.99
2017-09-01T02:00:42.781Z,99.99
2017-09-01T02:01:53.052Z,99.99
2017-09-01T02:03:03.325Z,99.99
2017-09-01T02:04:13.591Z,99.99
2017-09-01T02:05:23.887Z,99.99
2017-09-01T02:06:34.163Z,99.99
2017-09-01T02:07:43.787Z,99.99
2017-09-01T02:08:54.060Z,99.99
2017-09-01T02:10:04.004Z,99.99
2017-09-01T02:11:14.276Z,99.99
2017-09-01T02:12:24.544Z,99.99
2017-09-01T02:13:34.809Z,99.99
2017-09-01T02:14:45.075Z,99.99
2017-09-01T02:15:55.345Z,99.99
2017-09-01T02:17:05.614Z,99.99
2017-09-01T02:18:15.880Z,99.99
2017-09-01T02:19:26.147Z,99.99
2017-09-01T02:20:36.412Z,99.99
2017-09-01T02:21:46.676Z,99.99
2017-09-01T02:22:56.939Z,99.99
2017-09-01T02:24:06.885Z,99.99
2017-09-01T02:25:16.829Z,99.99
2017-09-01T02:26:27.096Z,99.99
2017-09-01T02:27:37.363Z,99.99
2017-09-01T02:28:47.632Z,99.99
2017-09-01T02:29:57.899Z,99.99
2017-09-01T02:31:07.846Z,99.99
2017-09-01T02:32:17.471Z,99.99
2017-09-01T02:33:27.742Z,99.99
2017-09-01T02:34:38.009Z,99.99
2017-09-01T02:35:47.962Z,99.99
2017-09-01T02:36:57.908Z,99.99
2017-09-01T02:38:08.170Z,99.99
2017-09-01T02:39:18.118Z,99.99
2017-09-01T02:40:28.387Z,99.99
2017-09-01T02:41:38.658Z,99.99
2017-09-01T02:42:48.924Z,99.99
2017-09-01T02:43:58.874Z,99.99
2017-09-01T02:45:09.142Z,99.99
2017-09-01T02:46:19.413Z,99.99
2017-09-01T02:47:29.684Z,99.99
2017-09-01T02:48:39.954Z,99.99
2017-09-01T02:49:49.936Z,99.99
2017-09-01T02:50:59.881Z,99.99
2017-09-01T02:52:09.505Z,99.99
2017-09-01T02:53:19.783Z,99.99
2017-09-01T02:54:30.054Z,99.99
2017-09-01T02:55:40.316Z,99.99
2017-09-01T02:56:50.591Z,99.99
2017-09-01T02:58:00.856Z,99.99
2017-09-01T02:59:11.120Z,99.99
2017-09-01T03:00:21.069Z,99.99
2017-09-01T03:01:31.014Z,99.99
2017-09-01T03:02:41.583Z,99.99
2017-09-01T03:03:51.845Z,99.99
2017-09-01T03:05:01.792Z,99.99
2017-09-01T03:06:11.736Z,99.99
2017-09-01T03:07:22.019Z,99.99
2017-09-01T03:08:32.286Z,99.99
2017-09-01T03:09:42.556Z,99.99
2017-09-01T03:10:52.821Z,99.99
2017-09-01T03:12:03.090Z,99.99
2017-09-01T03:13:13.033Z,99.99
2017-09-01T03:14:23.300Z,99.99
2017-09-01T03:15:33.564Z,99.99
2017-09-01T03:16:43.829Z,99.99
2017-09-01T03:17:54.095Z,99.99
2017-09-01T03:19:04.370Z,99.99
2017-09-01T03:20:14.636Z,99.99
2017-09-01T03:21:24.896Z,99.99
2017-09-01T03:22:35.160Z,99.99
2017-09-01T03:23:45.105Z,99.99
2017-09-01T03:24:55.371Z,99.99
2017-09-01T03:26:05.314Z,99.99
2017-09-01T03:27:15.257Z,99.99
2017-09-01T03:28:25.523Z,99.99
2017-09-01T03:29:35.476Z,99.99
2017-09-01T03:30:45.740Z,99.99
2017-09-01T03:31:56.016Z,99.99
2017-09-01T03:33:06.285Z,99.99
2017-09-01T03:34:16.554Z,99.99
2017-09-01T03:35:26.496Z,99.99
2017-09-01T03:36:36.782Z,99.99
2017-09-01T03:37:47.069Z,99.99
2017-09-01T03:38:57.023Z,99.99
2017-09-01T03:40:07.285Z,99.99
2017-09-01T03:41:17.232Z,99.99
2017-09-01T03:42:27.496Z,99.99
2017-09-01T03:43:37.765Z,99.99
2017-09-01T03:44:48.032Z,99.99
2017-09-01T03:45:57.974Z,99.99
2017-09-01T03:47:08.236Z,99.99
2017-09-01T03:48:18.503Z,99.99
2017-09-01T03:49:28.445Z,99.99
2017-09-01T03:50:38.392Z,99.99
2017-09-01T03:51:48.655Z,99.99
2017-09-01T03:52:58.598Z,99.99
2017-09-01T03:54:08.890Z,99.99
2017-09-01T03:55:19.153Z,99.99
2017-09-01T03:56:29.425Z,99.99
2017-09-01T03:57:39.693Z,99.99
2017-09-01T03:58:49.958Z,99.99
2017-09-01T04:00:00.219Z,99.99
2017-09-01T04:01:10.489Z,99.99
2017-09-01T04:02:20.435Z,99.99
2017-09-01T04:03:30.701Z,99.99
2017-09-01T04:04:40.649Z,99.99
2017-09-01T04:05:50.913Z,99.99
2017-09-01T04:07:00.855Z,99.99
2017-09-01T04:08:11.125Z,99.99
2017-09-01T04:09:21.066Z,99.99
2017-09-01T04:10:31.334Z,99.99
2017-09-01T04:11:41.597Z,99.99
2017-09-01T04:12:51.869Z,99.99
2017-09-01T04:14:02.141Z,99.99
2017-09-01T04:15:12.405Z,99.99
2017-09-01T04:16:22.700Z,99.99
2017-09-01T04:17:32.642Z,99.99
2017-09-01T04:18:42.910Z,99.99
2017-09-01T04:19:53.171Z,99.99
2017-09-01T04:21:03.433Z,99.99
2017-09-01T04:22:13.377Z,99.99
2017-09-01T04:23:23.646Z,99.99
2017-09-01T04:24:33.911Z,99.99
2017-09-01T04:25:44.175Z,99.99
2017-09-01T04:26:54.124Z,99.99
2017-09-01T04:28:04.067Z,99.99
2017-09-01T04:29:14.335Z,99.99
2017-09-01T04:30:24.278Z,99.99
2017-09-01T04:31:34.542Z,99.99
2017-09-01T04:32:44.812Z,99.99
2017-09-01T04:33:54.756Z,99.99
2017-09-01T04:35:05.020Z,99.99
2017-09-01T04:36:14.964Z,99.99
2017-09-01T04:37:25.229Z,99.99
2017-09-01T04:38:35.498Z,99.99
2017-09-01T04:39:45.767Z,99.99
2017-09-01T04:40:56.032Z,99.99
2017-09-01T04:42:05.980Z,99.99
2017-09-01T04:43:15.923Z,99.99
2017-09-01T04:44:26.187Z,99.99
2017-09-01T04:45:36.453Z,99.99
2017-09-01T04:46:46.721Z,99.99
2017-09-01T04:47:56.341Z,99.99
2017-09-01T04:49:06.609Z,99.99
2017-09-01T04:50:16.875Z,99.99
2017-09-01T04:51:27.143Z,99.99
2017-09-01T04:52:37.410Z,99.99
2017-09-01T04:53:47.676Z,99.99
2017-09-01T04:54:57.621Z,99.99
2017-09-01T04:56:07.888Z,99.99
2017-09-01T04:57:18.157Z,99.99
2017-09-01T04:58:28.424Z,99.99
2017-09-01T04:59:38.720Z,99.99
2017-09-01T05:00:48.665Z,99.99
2017-09-01T05:01:58.939Z,99.99
2017-09-01T05:03:08.884Z,99.99
2017-09-01T05:04:19.152Z,99.99
2017-09-01T05:05:29.414Z,99.99
2017-09-01T05:06:39.359Z,99.99
2017-09-01T05:07:49.635Z,99.99
2017-09-01T05:08:59.579Z,99.99
2017-09-01T05:10:09.845Z,99.99
2017-09-01T05:11:20.108Z,99.99
2017-09-01T05:12:30.054Z,99.99
2017-09-01T05:13:40.329Z,99.99
2017-09-01T05:14:50.592Z,99.99
2017-09-01T05:16:00.867Z,99.99
2017-09-01T05:17:11.132Z,99.99
2017-09-01T05:18:21.105Z,99.99
2017-09-01T05:19:31.048Z,99.99
2017-09-01T05:20:41.311Z,99.99
2017-09-01T05:21:51.583Z,99.99
2017-09-01T05:23:04.001Z,99.99
2017-09-01T05:24:14.271Z,99.99
2017-09-01T05:25:24.217Z,99.99
2017-09-01T05:26:33.840Z,99.99
2017-09-01T05:27:44.115Z,99.99
2017-09-01T05:28:54.408Z,99.99
2017-09-01T05:30:04.675Z,99.99
2017-09-01T05:31:14.619Z,99.99
2017-09-01T05:32:24.884Z,99.99
2017-09-01T05:33:35.148Z,99.99
2017-09-01T05:34:47.668Z,99.99
2017-09-01T05:35:57.933Z,99.99
2017-09-01T05:37:08.208Z,99.99
2017-09-01T05:38:18.472Z,99.99
2017-09-01T05:39:28.739Z,99.99
2017-09-01T05:40:39.008Z,99.99
2017-09-01T05:41:48.956Z,99.99
2017-09-01T05:42:58.899Z,99.99
2017-09-01T05:44:08.898Z,99.99
2017-09-01T05:45:18.849Z,99.99
2017-09-01T05:46:29.148Z,99.99
2017-09-01T05:47:39.427Z,99.99
2017-09-01T05:48:49.693Z,99.99
2017-09-01T05:49:59.980Z,99.99
2017-09-01T05:51:09.937Z,99.99
2017-09-01T05:52:20.204Z,99.99
2017-09-01T05:53:30.155Z,99.99
2017-09-01T05:54:40.422Z,99.99
2017-09-01T05:55:50.366Z,99.99
2017-09-01T05:57:00.314Z,99.99
2017-09-01T05:58:10.268Z,99.99
2017-09-01T05:59:20.538Z,99.99
2017-09-01T06:00:30.486Z,99.99
2017-09-01T06:01:40.755Z,99.99
2017-09-01T06:02:51.029Z,99.99
2017-09-01T06:04:01.301Z,99.99
2017-09-01T06:05:11.248Z,99.99
2017-09-01T06:06:21.192Z,99.99
2017-09-01T06:07:31.469Z,99.99
2017-09-01T06:08:40.769Z,99.99
2017-09-01T06:09:51.039Z,99.99
2017-09-01T06:11:01.306Z,99.99
2017-09-01T06:12:11.572Z,99.99
2017-09-01T06:13:21.835Z,99.99
2017-09-01T06:14:31.780Z,99.99
2017-09-01T06:15:42.045Z,99.99
2017-09-01T06:16:52.313Z,99.99
2017-09-01T06:18:02.584Z,99.99
2017-09-01T06:19:12.854Z,99.99
2017-09-01T06:20:23.122Z,99.99
2017-09-01T06:21:33.386Z,99.99
2017-09-01T06:22:43.654Z,99.99
2017-09-01T06:23:53.928Z,99.99
2017-09-01T06:25:04.203Z,99.99
2017-09-01T06:26:14.474Z,99.99
2017-09-01T06:27:24.416Z,99.99
2017-09-01T06:28:34.386Z,99.99
2017-09-01T06:29:44.655Z,99.99
2017-09-01T06:30:54.603Z,99.99
2017-09-01T06:32:04.870Z,99.99
2017-09-01T06:33:14.497Z,99.99
2017-09-01T06:34:24.124Z,99.99
2017-09-01T06:35:34.390Z,99.99
2017-09-01T06:36:44.336Z,99.99
2017-09-01T06:37:54.293Z,99.99
2017-09-01T06:39:04.571Z,99.99
2017-09-01T06:40:14.846Z,99.99
2017-09-01T06:41:24.842Z,99.99
2017-09-01T06:42:35.117Z,99.99
2017-09-01T06:43:45.066Z,99.99
2017-09-01T06:44:55.016Z,99.99
2017-09-01T06:46:05.281Z,99.99
2017-09-01T06:47:15.550Z,99.99
2017-09-01T06:48:25.182Z,99.99
2017-09-01T06:49:35.449Z,99.99
2017-09-01T06:50:45.715Z,99.99
2017-09-01T06:51:55.670Z,99.99
2017-09-01T06:53:05.935Z,99.99
2017-09-01T06:54:16.200Z,99.99
2017-09-01T06:55:26.152Z,99.99
2017-09-01T06:56:36.099Z,99.99
2017-09-01T06:57:46.053Z,99.99
2017-09-01T06:58:56.321Z,99.99
2017-09-01T07:00:06.605Z,99.99
2017-09-01T07:01:16.875Z,99.99
2017-09-01T07:02:27.154Z,99.99
2017-09-01T07:03:36.776Z,99.99
2017-09-01T07:04:47.046Z,99.99
2017-09-01T07:05:57.320Z,99.99
2017-09-01T07:07:07.614Z,99.99
2017-09-01T07:08:17.560Z,99.99
2017-09-01T07:09:27.515Z,99.99
2017-09-01T07:10:37.826Z,99.99
2017-09-01T07:11:48.100Z,99.99
2017-09-01T07:12:58.375Z,99.99
2017-09-01T07:14:08.650Z,99.99
2017-09-01T07:15:18.280Z,99.99
2017-09-01T07:16:28.555Z,99.99
2017-09-01T07:17:38.821Z,99.99
2017-09-01T07:18:49.100Z,99.99
2017-09-01T07:19:59.394Z,99.99
2017-09-01T07:21:09.344Z,99.99
2017-09-01T07:22:19.611Z,99.99
2017-09-01T07:23:29.241Z,99.99
2017-09-01T07:24:39.515Z,99.99
2017-09-01T07:25:49.785Z,99.99
2017-09-01T07:26:59.729Z,99.99
2017-09-01T07:28:09.677Z,99.99
2017-09-01T07:29:19.944Z,99.99
2017-09-01T07:30:30.212Z,99.47
2017-09-01T07:31:40.160Z,98.99
2017-09-01T07:32:50.105Z,99.66
2017-09-01T07:34:00.382Z,99.37
2017-09-01T07:35:10.329Z,97.47
2017-09-01T07:36:20.279Z,96.84
2017-09-01T07:37:29.421Z,96.75
2017-09-01T07:38:39.746Z,96.27
2017-09-01T07:39:50.017Z,96.46
2017-09-01T07:41:00.285Z,95.98
2017-09-01T07:42:10.554Z,96.37
2017-09-01T07:43:20.501Z,95.7
2017-09-01T07:44:30.448Z,94.55
2017-09-01T07:45:40.401Z,95.61
2017-09-01T07:46:50.352Z,95.98
2017-09-01T07:47:59.976Z,95.98
2017-09-01T07:49:09.924Z,94.55
2017-09-01T07:50:19.877Z,95.41
2017-09-01T07:51:29.512Z,94.93
2017-09-01T07:52:39.460Z,95.03
2017-09-01T07:53:49.736Z,94.46
2017-09-01T07:55:00.006Z,94.93
2017-09-01T07:56:09.636Z,94.36
2017-09-01T07:57:19.584Z,95.03
2017-09-01T07:58:29.541Z,94.46
2017-09-01T07:59:39.486Z,93.98
2017-09-01T08:00:49.757Z,93.41
2017-09-01T08:01:59.396Z,93.88
2017-09-01T08:03:09.346Z,94.17
2017-09-01T08:04:19.621Z,94.46
2017-09-01T08:05:29.249Z,94.89
2017-09-01T08:06:38.907Z,95.12
2017-09-01T08:07:48.860Z,95.03
2017-09-01T08:08:59.130Z,94.74
2017-09-01T08:10:09.113Z,95.41
2017-09-01T08:11:19.384Z,94.27
2017-09-01T08:12:29.654Z,94.17
2017-09-01T08:13:39.929Z,94.84
2017-09-01T08:14:50.198Z,94.65
2017-09-01T08:16:00.147Z,93.5
2017-09-01T08:17:10.097Z,94.17
2017-09-01T08:18:20.377Z,93.31
2017-09-01T08:19:30.330Z,93.45
2017-09-01T08:20:40.598Z,93.26
2017-09-01T08:21:50.551Z,93.36
2017-09-01T08:23:00.501Z,93.07
2017-09-01T08:24:10.775Z,93.45
2017-09-01T08:25:20.727Z,93.12
2017-09-01T08:26:30.998Z,92.35
2017-09-01T08:27:40.960Z,92.74
2017-09-01T08:28:51.229Z,91.11
2017-09-01T08:30:00.860Z,91.73
2017-09-01T08:31:11.136Z,90.48
2017-09-01T08:32:21.572Z,90.39
2017-09-01T08:33:31.842Z,90.39
2017-09-01T08:34:41.798Z,89.62
2017-09-01T08:35:52.072Z,89.38
2017-09-01T08:37:02.020Z,87.85
2017-09-01T08:38:12.292Z,87.62
2017-09-01T08:39:22.562Z,87.14
2017-09-01T08:40:32.522Z,86.57
2017-09-01T08:41:42.798Z,86.85
2017-09-01T08:42:53.073Z,87.43
2017-09-01T08:44:03.350Z,86.76
2017-09-01T08:45:13.301Z,88.24
2017-09-01T08:46:23.575Z,89.96
2017-09-01T08:47:33.204Z,89.77
2017-09-01T08:48:43.191Z,89.72
2017-09-01T08:49:53.148Z,89.24
2017-09-01T08:51:03.098Z,89.72
2017-09-01T08:52:13.049Z,89.05
2017-09-01T08:53:23.323Z,89.72
2017-09-01T08:54:33.282Z,89.05
2017-09-01T08:55:42.916Z,88.43
2017-09-01T08:56:52.868Z,88.23
2017-09-01T08:58:03.143Z,87.47
2017-09-01T08:59:13.120Z,87.08
2017-09-01T09:00:23.076Z,86.9
2017-09-01T09:01:33.027Z,87.13
2017-09-01T09:02:43.302Z,86.74
2017-09-01T09:03:53.585Z,85.98
2017-09-01T09:05:03.859Z,85.5
2017-09-01T09:06:13.496Z,84.26
2017-09-01T09:07:22.818Z,85.65
2017-09-01T09:08:32.769Z,86.04
2017-09-01T09:09:42.792Z,86.51
2017-09-01T09:10:52.744Z,86.99
2017-09-01T09:12:03.055Z,86.41
2017-09-01T09:13:13.327Z,86.9
2017-09-01T09:14:22.639Z,86.99
2017-09-01T09:15:32.275Z,86.13
2017-09-01T09:16:42.229Z,87.08
2017-09-01T09:17:52.192Z,86.41
2017-09-01T09:19:02.470Z,85.84
2017-09-01T09:20:12.424Z,86.17
2017-09-01T09:21:22.375Z,86.08
2017-09-01T09:22:32.004Z,84.92
2017-09-01T09:23:42.279Z,85.12
2017-09-01T09:24:52.546Z,84.92
2017-09-01T09:26:02.507Z,85.02
2017-09-01T09:27:12.792Z,84.92
2017-09-01T09:28:22.421Z,84.74
2017-09-01T09:29:32.372Z,85.21
2017-09-01T09:30:42.003Z,83.97
2017-09-01T09:31:52.276Z,84.55
2017-09-01T09:33:02.551Z,84.55
2017-09-01T09:34:12.825Z,84.92
2017-09-01T09:35:22.559Z,84.55
2017-09-01T09:36:32.511Z,84.06
2017-09-01T09:37:42.143Z,84.49
2017-09-01T09:38:52.439Z,84.01
2017-09-01T09:40:02.718Z,83.34
2017-09-01T09:41:12.679Z,84.2
2017-09-01T09:42:22.953Z,83.05
2017-09-01T09:43:33.227Z,84.11
2017-09-01T09:44:43.513Z,84.3
2017-09-01T09:45:53.801Z,83.72
2017-09-01T09:47:03.431Z,83
2017-09-01T09:48:13.705Z,82.23
2017-09-01T09:49:23.980Z,82.62
2017-09-01T09:50:34.254Z,81.66
2017-09-01T09:51:44.210Z,80.99
2017-09-01T09:52:54.489Z,80.55
2017-09-01T09:54:04.761Z,80.45
2017-09-01T09:55:15.038Z,80.45
2017-09-01T09:56:24.671Z,79.21
2017-09-01T09:57:34.626Z,81.02
2017-09-01T09:58:44.906Z,80.45
2017-09-01T09:59:55.182Z,80.83
2017-09-01T10:01:05.134Z,80.16
2017-09-01T10:02:15.102Z,80.3
2017-09-01T10:03:25.066Z,79.59
2017-09-01T10:04:35.338Z,78.47
2017-09-01T10:05:45.290Z,78.53
2017-09-01T10:06:55.246Z,79.39
2017-09-01T10:08:05.193Z,79.97
2017-09-01T10:09:15.144Z,80.07
2017-09-01T10:10:24.780Z,79.59
2017-09-01T10:11:35.060Z,80.35
2017-09-01T10:12:45.340Z,79.88
2017-09-01T10:13:54.975Z,79.88
2017-09-01T10:15:05.265Z,80.55
2017-09-01T10:16:15.547Z,80.07
2017-09-01T10:17:24.859Z,79.59
2017-09-01T10:18:34.495Z,79.88
2017-09-01T10:19:44.447Z,80.45
2017-09-01T10:20:54.760Z,80.07
2017-09-01T10:22:04.722Z,80.16
2017-09-01T10:23:14.995Z,79.88
2017-09-01T10:24:24.625Z,79.97
2017-09-01T10:25:34.612Z,79.21
2017-09-01T10:26:44.889Z,79.91
2017-09-01T10:27:54.846Z,79.53
2017-09-01T10:29:05.121Z,78.96
2017-09-01T10:30:15.400Z,78.96
2017-09-01T10:31:25.351Z,78.96
2017-09-01T10:32:35.630Z,78.57
2017-09-01T10:33:45.585Z,78
2017-09-01T10:34:55.215Z,78.38
2017-09-01T10:36:05.169Z,79.14
2017-09-01T10:37:15.449Z,78.57
2017-09-01T10:38:25.403Z,76.94
2017-09-01T10:39:35.390Z,77.04
2017-09-01T10:40:45.665Z,77.51
2017-09-01T10:41:55.296Z,77.94
2017-09-01T10:43:05.573Z,78.23
2017-09-01T10:44:15.847Z,78.28
2017-09-01T10:45:25.805Z,78
2017-09-01T10:46:36.084Z,78.09
2017-09-01T10:47:46.368Z,77.71
2017-09-01T10:48:56.640Z,77.33
2017-09-01T10:50:06.273Z,78.38
2017-09-01T10:51:16.225Z,78.57
2017-09-01T10:52:25.856Z,78.86
2017-09-01T10:53:35.839Z,78.96
2017-09-01T10:54:45.473Z,78.82
2017-09-01T10:55:55.105Z,78.77
2017-09-01T10:57:05.392Z,77.9
2017-09-01T10:58:15.666Z,78.38
2017-09-01T10:59:25.935Z,78.57
2017-09-01T11:00:35.894Z,78.38
2017-09-01T11:01:46.170Z,78.77
2017-09-01T11:02:56.450Z,78.86
2017-09-01T11:04:06.739Z,77.71
2017-09-01T11:05:16.371Z,78.28
2017-09-01T11:06:26.330Z,78.09
2017-09-01T11:07:36.297Z,78.57
2017-09-01T11:08:46.574Z,78.38
2017-09-01T11:09:56.528Z,78.19
2017-09-01T11:11:06.806Z,78.28
2017-09-01T11:12:16.759Z,76.98
2017-09-01T11:13:27.033Z,77.17
2017-09-01T11:14:36.986Z,76.06
2017-09-01T11:15:47.263Z,75.23
2017-09-01T11:16:57.218Z,75.37
2017-09-01T11:18:07.170Z,73.47
2017-09-01T11:19:17.446Z,72.01
2017-09-01T11:20:27.077Z,71.76
2017-09-01T11:21:37.033Z,69.48
2017-09-01T11:22:46.988Z,67.04
2017-09-01T11:23:57.265Z,65.72
2017-09-01T11:25:07.223Z,65.69
2017-09-01T11:26:16.857Z,65.24
2017-09-01T11:27:26.816Z,63.82
2017-09-01T11:28:36.776Z,61.24
2017-09-01T11:29:46.738Z,62.79
2017-09-01T11:30:57.030Z,60.57
2017-09-01T11:32:07.309Z,60.08
2017-09-01T11:33:17.593Z,60.3
2017-09-01T11:34:27.871Z,60.21
2017-09-01T11:35:37.830Z,59.82
2017-09-01T11:36:48.107Z,60.59
2017-09-01T11:37:58.065Z,60.59
2017-09-01T11:39:08.020Z,60.75
2017-09-01T11:40:18.301Z,60.17
2017-09-01T11:41:28.595Z,58.14
2017-09-01T11:42:38.877Z,58.5
2017-09-01T11:43:48.835Z,58.18
2017-09-01T11:44:59.116Z,59.05
2017-09-01T11:46:09.396Z,58.76
2017-09-01T11:47:19.356Z,59.53
2017-09-01T11:48:29.637Z,59.56
2017-09-01T11:49:39.593Z,58.04
2017-09-01T11:50:49.553Z,56.62
2017-09-01T11:51:59.832Z,57.23
2017-09-01T11:53:09.792Z,55.04
2017-09-01T11:54:20.075Z,55.1
2017-09-01T11:55:30.366Z,55.3
2017-09-01T11:56:40.655Z,55.27
2017-09-01T11:57:50.618Z,55.63
2017-09-01T11:59:00.898Z,55.89
2017-09-01T12:00:10.859Z,56.25
2017-09-01T12:01:21.148Z,57.96
2017-09-01T12:02:31.435Z,56.99
2017-09-01T12:03:41.715Z,58.22
2017-09-01T12:04:51.679Z,58.77
2017-09-01T12:06:01.637Z,59.16
2017-09-01T12:07:11.918Z,59.13
2017-09-01T12:08:21.557Z,59.52
2017-09-01T12:09:31.191Z,59.71
2017-09-01T12:10:41.474Z,60.74
2017-09-01T12:11:51.430Z,60.55
2017-09-01T12:13:01.709Z,61.13
2017-09-01T12:14:11.986Z,60.35
2017-09-01T12:15:21.300Z,61.03
2017-09-01T12:16:31.256Z,61.71
2017-09-01T12:17:41.541Z,62.06
2017-09-01T12:18:51.503Z,62.45
2017-09-01T12:20:01.786Z,63.38
2017-09-01T12:21:12.063Z,63.38
2017-09-01T12:22:22.022Z,63.73
2017-09-01T12:23:32.297Z,64.18
2017-09-01T12:24:42.578Z,65.01
2017-09-01T12:25:52.859Z,65.59
2017-09-01T12:27:02.820Z,65.66
2017-09-01T12:28:12.461Z,66.61
2017-09-01T12:29:22.735Z,66.81
2017-09-01T12:30:32.690Z,67.38
2017-09-01T12:31:42.968Z,68.06
2017-09-01T12:32:53.244Z,68.21
2017-09-01T12:34:03.527Z,68.6
2017-09-01T12:35:13.802Z,67.83
2017-09-01T12:36:23.433Z,68.51
2017-09-01T12:37:33.707Z,69.05
2017-09-01T12:38:43.340Z,69.43
2017-09-01T12:39:53.613Z,69.72
2017-09-01T12:41:03.895Z,70.2
2017-09-01T12:42:13.869Z,70.39
2017-09-01T12:43:23.821Z,71.03
2017-09-01T12:44:33.773Z,70.93
2017-09-01T12:45:43.730Z,71.31
2017-09-01T12:46:54.004Z,71.8
2017-09-01T12:48:04.279Z,72.28
2017-09-01T12:49:14.233Z,72.08
2017-09-01T12:50:24.192Z,72.28
2017-09-01T12:51:34.141Z,72.95
2017-09-01T12:52:44.445Z,73.39
2017-09-01T12:53:54.720Z,73
2017-09-01T12:55:04.995Z,73.3
2017-09-01T12:56:15.273Z,73.58
2017-09-01T12:57:25.226Z,73.68
2017-09-01T12:58:35.501Z,74.26
2017-09-01T12:59:45.778Z,74.35
2017-09-01T13:00:55.731Z,73.77
2017-09-01T13:02:06.006Z,75.46
2017-09-01T13:03:15.964Z,75.18
2017-09-01T13:04:25.916Z,75.85
2017-09-01T13:05:35.878Z,75.85
2017-09-01T13:06:46.152Z,75.65
2017-09-01T13:07:56.110Z,76.29
2017-09-01T13:09:06.384Z,76.19
2017-09-01T13:10:16.659Z,76.23
2017-09-01T13:11:26.934Z,76.77
2017-09-01T13:12:36.569Z,78.3
2017-09-01T13:13:46.522Z,79.51
2017-09-01T13:14:56.541Z,79.89
2017-09-01T13:16:06.819Z,80.52
2017-09-01T13:17:17.093Z,79.66
2017-09-01T13:18:27.046Z,80.14
2017-09-01T13:19:36.677Z,79.85
2017-09-01T13:20:46.948Z,79.37
2017-09-01T13:21:57.250Z,80.14
2017-09-01T13:23:07.526Z,79.47
2017-09-01T13:24:17.478Z,79.95
2017-09-01T13:25:27.751Z,80.24
2017-09-01T13:26:37.702Z,80.24
2017-09-01T13:27:47.657Z,80.67
2017-09-01T13:28:57.934Z,80.04
2017-09-01T13:30:07.900Z,80.04
2017-09-01T13:31:18.172Z,81.15
2017-09-01T13:32:28.445Z,81.34
2017-09-01T13:33:38.697Z,81.82
2017-09-01T13:34:48.971Z,81.34
2017-09-01T13:35:58.929Z,82.11
2017-09-01T13:37:08.565Z,81.92
2017-09-01T13:38:18.841Z,81.63
2017-09-01T13:39:29.117Z,81.44
2017-09-01T13:40:39.089Z,80.67
2017-09-01T13:41:49.041Z,81.15
2017-09-01T13:42:58.671Z,80.96
2017-09-01T13:44:08.623Z,81.73
2017-09-01T13:45:18.897Z,81.82
2017-09-01T13:46:28.527Z,81.59
2017-09-01T13:47:38.799Z,82.07
2017-09-01T13:48:49.077Z,82.35
2017-09-01T13:49:59.027Z,81.97
2017-09-01T13:51:08.986Z,81.68
2017-09-01T13:52:18.939Z,81.92
2017-09-01T13:53:28.892Z,81.54
2017-09-01T13:54:38.521Z,81.63
2017-09-01T13:55:48.800Z,81.25
2017-09-01T13:56:58.755Z,80.38
2017-09-01T13:58:08.708Z,80
2017-09-01T13:59:18.661Z,80.48
2017-09-01T14:00:28.936Z,80.96
2017-09-01T14:01:38.570Z,80.38
2017-09-01T14:02:48.520Z,80.77
2017-09-01T14:03:58.802Z,80.87
2017-09-01T14:05:09.075Z,81.34
2017-09-01T14:06:19.344Z,81.54
2017-09-01T14:07:29.615Z,82.3
2017-09-01T14:08:39.565Z,82.59
2017-09-01T14:09:49.837Z,83.06
2017-09-01T14:11:00.110Z,83.73
2017-09-01T14:12:10.380Z,84.59
2017-09-01T14:13:20.653Z,85.65
2017-09-01T14:14:30.931Z,86.51
2017-09-01T14:15:40.892Z,86.41
2017-09-01T14:16:51.164Z,86.61
2017-09-01T14:18:01.123Z,86.51
2017-09-01T14:19:11.394Z,85.75
2017-09-01T14:20:21.664Z,86.32
2017-09-01T14:21:31.650Z,85.75
2017-09-01T14:22:41.611Z,84.41
2017-09-01T14:23:51.238Z,85.08
2017-09-01T14:25:01.548Z,84.98
2017-09-01T14:26:11.820Z,84.98
2017-09-01T14:27:21.771Z,85.65
2017-09-01T14:28:32.041Z,84.69
2017-09-01T14:29:41.670Z,83.36
2017-09-01T14:30:51.308Z,81.54
2017-09-01T14:32:01.260Z,80.9
2017-09-01T14:33:11.539Z,80.04
2017-09-01T14:34:21.819Z,78.07
2017-09-01T14:35:32.089Z,76.82
2017-09-01T14:36:42.366Z,75.58
2017-09-01T14:37:51.999Z,75.52
2017-09-01T14:39:01.959Z,75.75
2017-09-01T14:40:12.246Z,74.35
2017-09-01T14:41:22.517Z,75.4
2017-09-01T14:42:32.470Z,73.52
2017-09-01T14:43:42.101Z,71.22
2017-09-01T14:44:52.374Z,70.93
2017-09-01T14:46:02.660Z,70.1
2017-09-01T14:47:12.935Z,69.27
2017-09-01T14:48:22.886Z,68.92
2017-09-01T14:49:33.158Z,65.81
2017-09-01T14:50:43.442Z,65.69
2017-09-01T14:51:53.716Z,63.73
2017-09-01T14:53:03.679Z,59.83
2017-09-01T14:54:13.634Z,56.41
2017-09-01T14:55:23.602Z,58.12
2017-09-01T14:56:33.241Z,57.01
2017-09-01T14:57:43.207Z,55.04
2017-09-01T14:58:53.170Z,53.15
2017-09-01T15:00:03.131Z,52.15
2017-09-01T15:01:13.098Z,50.36
2017-09-01T15:02:23.390Z,51.26
2017-09-01T15:03:33.347Z,50.19